createdAt,value
2022-08-30T00:00:45.776Z,86.08
2022-08-30T00:03:16.884Z,86.51
2022-08-30T00:05:47.998Z,87.24
2022-08-30T00:08:19.107Z,88.70
2022-08-30T00:10:51.450Z,87.73
2022-08-30T00:13:23.378Z,87.60
2022-08-30T00:15:55.690Z,87.25
2022-08-30T00:18:25.827Z,88.30
2022-08-30T00:20:57.366Z,88.10
2022-08-30T00:23:28.471Z,87.47
2022-08-30T00:25:58.847Z,87.44
2022-08-30T00:28:28.661Z,88.09
2022-08-30T00:31:00.429Z,88.14
2022-08-30T00:33:30.771Z,88.22
2022-08-30T00:36:01.901Z,87.96
2022-08-30T00:38:32.185Z,88.23
2022-08-30T00:41:02.516Z,88.35
2022-08-30T00:43:36.807Z,88.27
2022-08-30T00:46:10.635Z,87.88
2022-08-30T00:48:44.708Z,87.78
2022-08-30T00:51:18.794Z,87.98
2022-08-30T00:53:52.533Z,87.62
2022-08-30T00:56:23.746Z,87.78
2022-08-30T00:58:56.887Z,87.49
2022-08-30T01:01:34.067Z,87.23
2022-08-30T01:04:05.461Z,87.25
2022-08-30T01:06:35.549Z,87.51
2022-08-30T01:09:06.694Z,87.61
2022-08-30T01:11:38.560Z,87.60
2022-08-30T01:14:11.773Z,87.17
2022-08-30T01:16:45.894Z,87.48
2022-08-30T01:19:36.337Z,87.10
2022-08-30T01:22:21.243Z,87.23
2022-08-30T01:24:58.668Z,87.48
2022-08-30T01:27:31.488Z,87.79
2022-08-30T01:30:02.500Z,87.70
2022-08-30T01:32:32.054Z,87.70
2022-08-30T01:35:02.013Z,87.78
2022-08-30T01:37:35.187Z,86.92
2022-08-30T01:40:08.984Z,87.16
2022-08-30T01:42:39.244Z,87.21
2022-08-30T01:45:10.280Z,86.83
2022-08-30T01:47:40.822Z,87.01
2022-08-30T01:50:11.598Z,87.41
2022-08-30T01:52:42.641Z,87.32
2022-08-30T01:55:14.529Z,87.81
2022-08-30T01:57:44.767Z,87.64
2022-08-30T02:00:16.705Z,87.61
2022-08-30T02:02:47.294Z,88.28
2022-08-30T02:05:17.324Z,87.81
2022-08-30T02:07:48.257Z,88.04
2022-08-30T02:10:20.979Z,87.99
2022-08-30T02:12:50.829Z,88.23
2022-08-30T02:15:21.610Z,87.92
2022-08-30T02:17:51.213Z,87.95
2022-08-30T02:20:21.881Z,88.29
2022-08-30T02:22:52.137Z,87.72
2022-08-30T02:25:23.315Z,87.95
2022-08-30T02:27:56.411Z,88.42
2022-08-30T02:30:26.621Z,88.82
2022-08-30T02:32:57.497Z,89.32
2022-08-30T02:35:28.125Z,89.13
2022-08-30T02:37:57.721Z,89.09
2022-08-30T02:40:29.960Z,89.20
2022-08-30T02:43:00.402Z,88.99
2022-08-30T02:45:30.430Z,88.63
2022-08-30T02:48:00.492Z,88.82
2022-08-30T02:50:31.619Z,88.62
2022-08-30T02:53:01.770Z,88.86
2022-08-30T02:55:38.286Z,88.83
2022-08-30T02:58:08.141Z,89.08
2022-08-30T03:00:38.646Z,89.07
2022-08-30T03:03:09.114Z,89.08
2022-08-30T03:05:39.758Z,88.98
2022-08-30T03:08:10.259Z,88.99
2022-08-30T03:10:41.854Z,88.85
2022-08-30T03:13:12.405Z,89.07
2022-08-30T03:15:42.660Z,88.94
2022-08-30T03:18:12.988Z,89.00
2022-08-30T03:20:46.108Z,89.13
2022-08-30T03:23:25.059Z,89.62
2022-08-30T03:25:57.838Z,89.55
2022-08-30T03:28:29.937Z,89.81
2022-08-30T03:30:59.649Z,89.59
2022-08-30T03:33:29.363Z,90.05
2022-08-30T03:35:59.851Z,90.13
2022-08-30T03:38:31.445Z,90.55
2022-08-30T03:41:03.992Z,90.76
2022-08-30T03:43:34.953Z,91.00
2022-08-30T03:46:06.201Z,91.46
2022-08-30T03:48:36.423Z,92.50
2022-08-30T03:51:07.796Z,92.03
2022-08-30T03:53:39.072Z,91.99
2022-08-30T03:56:11.035Z,92.47
2022-08-30T03:58:45.187Z,92.36
2022-08-30T04:01:15.959Z,92.27
2022-08-30T04:03:45.547Z,91.87
2022-08-30T04:06:15.722Z,92.33
2022-08-30T04:08:46.276Z,92.90
2022-08-30T04:11:18.226Z,92.50
2022-08-30T04:13:52.251Z,93.12
2022-08-30T04:16:22.391Z,93.28
2022-08-30T04:18:53.176Z,92.90
2022-08-30T04:21:23.409Z,92.39
2022-08-30T04:23:53.800Z,92.58
2022-08-30T04:26:27.634Z,92.69
2022-08-30T04:29:03.712Z,92.36
2022-08-30T04:31:33.635Z,92.94
2022-08-30T04:34:06.198Z,92.80
2022-08-30T04:36:36.466Z,93.17
2022-08-30T04:39:08.399Z,93.81
2022-08-30T04:41:41.210Z,93.73
2022-08-30T04:44:19.139Z,94.45
2022-08-30T04:46:50.597Z,94.27
2022-08-30T04:49:22.254Z,94.17
2022-08-30T04:51:53.149Z,95.10
2022-08-30T04:54:24.094Z,94.62
2022-08-30T04:56:56.112Z,95.08
2022-08-30T04:59:26.406Z,94.71
2022-08-30T05:01:55.501Z,94.46
2022-08-30T05:04:24.958Z,94.41
2022-08-30T05:06:54.034Z,93.85
2022-08-30T05:09:23.308Z,94.18
2022-08-30T05:11:54.467Z,93.94
2022-08-30T05:14:24.298Z,93.87
2022-08-30T05:16:53.937Z,93.80
2022-08-30T05:19:24.008Z,93.68
2022-08-30T05:21:53.389Z,94.22
2022-08-30T05:24:22.723Z,93.72
2022-08-30T05:26:52.412Z,92.92
2022-08-30T05:29:23.074Z,93.54
2022-08-30T05:31:53.180Z,94.19
2022-08-30T05:34:23.346Z,93.82
2022-08-30T05:36:53.436Z,94.16
2022-08-30T05:39:23.074Z,94.74
2022-08-30T05:41:56.864Z,94.57
2022-08-30T05:44:28.204Z,94.13
2022-08-30T05:46:57.555Z,92.24
2022-08-30T05:49:26.882Z,92.63
2022-08-30T05:51:57.165Z,92.57
2022-08-30T05:54:26.453Z,92.68
2022-08-30T05:56:55.958Z,92.84
2022-08-30T05:59:26.451Z,91.05
2022-08-30T06:01:59.379Z,92.05
2022-08-30T06:04:29.073Z,91.62
2022-08-30T06:06:58.322Z,91.57
2022-08-30T06:09:27.794Z,90.63
2022-08-30T06:11:57.937Z,89.82
2022-08-30T06:14:29.367Z,88.89
2022-08-30T06:16:58.607Z,87.96
2022-08-30T06:19:27.860Z,86.28
2022-08-30T06:21:58.004Z,85.19
2022-08-30T06:24:41.071Z,84.75
2022-08-30T06:27:16.950Z,83.90
2022-08-30T06:29:51.747Z,83.73
2022-08-30T06:32:21.462Z,83.16
2022-08-30T06:34:50.911Z,82.57
2022-08-30T06:37:29.178Z,81.86
2022-08-30T06:40:00.015Z,81.08
2022-08-30T06:42:33.544Z,79.30
2022-08-30T06:45:10.691Z,79.01
2022-08-30T06:47:44.893Z,76.60
2022-08-30T06:50:18.289Z,77.57
2022-08-30T06:52:48.055Z,77.31
2022-08-30T06:55:18.160Z,75.90
2022-08-30T06:57:48.201Z,76.64
2022-08-30T07:00:20.134Z,76.40
2022-08-30T07:02:49.692Z,75.84
2022-08-30T07:05:22.197Z,75.32
2022-08-30T07:07:53.510Z,74.57
2022-08-30T07:10:23.362Z,73.69
2022-08-30T07:12:52.649Z,73.50
2022-08-30T07:15:23.260Z,73.51
2022-08-30T07:18:10.389Z,73.07
2022-08-30T07:20:40.872Z,70.40
2022-08-30T07:23:11.188Z,70.27
2022-08-30T07:25:42.302Z,70.34
2022-08-30T07:28:12.711Z,69.86
2022-08-30T07:30:44.685Z,69.73
2022-08-30T07:33:13.864Z,69.20
2022-08-30T07:35:43.978Z,67.85
2022-08-30T07:38:15.205Z,67.55
2022-08-30T07:40:45.162Z,67.44
2022-08-30T07:43:14.437Z,63.21
2022-08-30T07:45:44.923Z,64.31
2022-08-30T07:48:14.697Z,64.65
2022-08-30T07:50:45.968Z,64.20
2022-08-30T07:53:15.593Z,62.73
2022-08-30T07:55:44.807Z,63.71
2022-08-30T07:58:15.077Z,64.15
2022-08-30T08:00:46.194Z,64.15
2022-08-30T08:03:15.980Z,62.83
2022-08-30T08:05:48.563Z,60.57
2022-08-30T08:08:18.230Z,61.16
2022-08-30T08:10:48.246Z,56.82
2022-08-30T08:13:18.030Z,57.36
2022-08-30T08:15:48.987Z,57.52
2022-08-30T08:18:18.998Z,58.19
2022-08-30T08:20:48.425Z,58.00
2022-08-30T08:23:19.479Z,56.90
2022-08-30T08:25:48.908Z,56.36
2022-08-30T08:28:18.276Z,56.04
2022-08-30T08:30:50.549Z,54.49
2022-08-30T08:33:20.303Z,55.33
2022-08-30T08:35:50.510Z,54.13
2022-08-30T08:38:20.425Z,53.04
2022-08-30T08:41:00.951Z,52.55
2022-08-30T08:43:35.053Z,51.93
2022-08-30T08:46:11.654Z,52.60
2022-08-30T08:48:59.030Z,51.73
2022-08-30T08:51:51.925Z,51.72
2022-08-30T08:54:29.115Z,52.74
2022-08-30T08:56:59.286Z,53.58
2022-08-30T08:59:28.933Z,51.71
2022-08-30T09:02:03.506Z,52.02
2022-08-30T09:04:37.328Z,51.96
2022-08-30T09:07:17.478Z,51.01
2022-08-30T09:09:50.739Z,50.58
2022-08-30T09:12:22.388Z,51.06
2022-08-30T09:14:57.298Z,50.40
2022-08-30T09:17:30.259Z,50.12
2022-08-30T09:20:01.210Z,50.70
2022-08-30T09:22:35.468Z,48.39
2022-08-30T09:25:11.319Z,49.22
2022-08-30T09:27:43.551Z,49.66
2022-08-30T09:30:19.947Z,48.63
2022-08-30T09:32:56.034Z,48.51
2022-08-30T09:35:28.590Z,47.63
2022-08-30T09:38:06.081Z,48.19
2022-08-30T09:40:40.792Z,45.41
2022-08-30T09:43:20.864Z,48.79
2022-08-30T09:46:07.008Z,48.87
2022-08-30T09:48:40.872Z,46.87
2022-08-30T09:51:31.669Z,46.51
2022-08-30T09:54:20.245Z,46.43
2022-08-30T09:57:11.728Z,47.43
2022-08-30T09:59:50.288Z,46.10
2022-08-30T10:02:42.689Z,43.83
2022-08-30T10:05:21.037Z,43.55
2022-08-30T10:08:01.305Z,42.60
2022-08-30T10:10:42.816Z,44.46
2022-08-30T10:13:44.490Z,45.37
2022-08-30T10:16:29.171Z,45.09
2022-08-30T10:19:07.888Z,44.24
2022-08-30T10:21:45.546Z,42.82
2022-08-30T10:24:21.193Z,44.25
2022-08-30T10:26:55.766Z,43.29
2022-08-30T10:29:31.308Z,44.34
2022-08-30T10:32:05.150Z,43.36
2022-08-30T10:34:40.232Z,42.95
2022-08-30T10:37:16.710Z,43.09
2022-08-30T10:39:50.381Z,44.50
2022-08-30T10:42:23.192Z,42.70
2022-08-30T10:45:01.544Z,42.21
2022-08-30T10:47:37.557Z,42.16
2022-08-30T10:50:15.276Z,42.76
2022-08-30T10:52:56.172Z,41.88
2022-08-30T10:55:30.417Z,42.04
2022-08-30T10:58:01.944Z,43.32
2022-08-30T11:00:39.370Z,41.82
2022-08-30T11:03:46.546Z,43.21
2022-08-30T11:06:26.542Z,41.57
2022-08-30T11:09:38.925Z,41.74
2022-08-30T11:12:31.905Z,41.12
2022-08-30T11:15:12.786Z,41.35
2022-08-30T11:17:48.787Z,40.75
2022-08-30T11:20:34.546Z,42.30
2022-08-30T11:23:23.519Z,41.59
2022-08-30T11:25:58.469Z,41.45
2022-08-30T11:29:03.506Z,41.85
2022-08-30T11:31:53.724Z,42.04
2022-08-30T11:34:57.745Z,39.48
2022-08-30T11:37:41.229Z,41.27
2022-08-30T11:40:33.664Z,41.89
2022-08-30T11:43:43.423Z,41.07
2022-08-30T11:46:18.154Z,41.51
2022-08-30T11:48:55.124Z,40.66
2022-08-30T11:52:08.527Z,39.32
2022-08-30T11:55:00.293Z,40.38
2022-08-30T11:57:38.375Z,39.58
2022-08-30T12:00:30.120Z,39.86
2022-08-30T12:03:03.938Z,40.45
2022-08-30T12:05:53.116Z,40.46
2022-08-30T12:08:59.990Z,39.85
2022-08-30T12:12:04.551Z,40.37
2022-08-30T12:14:47.826Z,40.08
2022-08-30T12:17:52.172Z,39.81
2022-08-30T12:20:29.808Z,38.12
2022-08-30T12:23:19.183Z,40.61
2022-08-30T12:25:49.359Z,41.63
2022-08-30T12:28:26.344Z,41.57
2022-08-30T12:30:56.263Z,41.63
2022-08-30T12:33:39.503Z,42.42
2022-08-30T12:36:15.869Z,41.63
2022-08-30T12:38:46.849Z,41.32
2022-08-30T12:41:22.917Z,43.09
2022-08-30T12:43:53.999Z,42.63
2022-08-30T12:46:23.998Z,41.84
2022-08-30T12:48:55.509Z,42.71
2022-08-30T12:51:37.975Z,43.09
2022-08-30T12:54:10.793Z,43.45
2022-08-30T12:56:56.810Z,43.64
2022-08-30T12:59:51.783Z,44.84
2022-08-30T13:02:27.898Z,43.54
2022-08-30T13:04:59.729Z,43.45
2022-08-30T13:07:34.260Z,42.79
2022-08-30T13:10:10.383Z,43.97
2022-08-30T13:13:00.185Z,43.95
2022-08-30T13:15:33.212Z,44.31
2022-08-30T13:18:26.645Z,43.41
2022-08-30T13:21:20.730Z,43.81
2022-08-30T13:23:50.762Z,44.29
2022-08-30T13:26:23.307Z,45.67
2022-08-30T13:28:58.751Z,44.38
2022-08-30T13:31:30.687Z,45.04
2022-08-30T13:34:02.652Z,45.14
2022-08-30T13:36:37.868Z,44.88
2022-08-30T13:39:08.117Z,45.33
2022-08-30T13:41:38.154Z,45.78
2022-08-30T13:44:11.956Z,45.25
2022-08-30T13:46:52.258Z,45.72
2022-08-30T13:52:22.679Z,44.75
2022-08-30T13:54:54.483Z,44.89
2022-08-30T14:00:20.150Z,45.26
2022-08-30T14:02:54.484Z,45.24
2022-08-30T14:11:11.992Z,45.33
2022-08-30T14:16:34.807Z,44.53
2022-08-30T14:19:05.814Z,44.00
2022-08-30T14:21:37.562Z,44.25
2022-08-30T14:24:09.692Z,43.98
2022-08-30T14:26:43.939Z,44.05
2022-08-30T14:29:17.796Z,44.38
2022-08-30T14:31:49.212Z,43.73
2022-08-30T14:34:20.434Z,44.60
2022-08-30T14:36:49.996Z,44.56
2022-08-30T14:39:22.696Z,43.95
2022-08-30T14:41:55.277Z,43.90
2022-08-30T14:44:26.339Z,42.81
2022-08-30T14:46:56.951Z,44.89
2022-08-30T14:49:27.516Z,44.84
2022-08-30T14:51:57.845Z,45.66
2022-08-30T14:54:32.570Z,46.30
2022-08-30T14:57:03.391Z,45.88
2022-08-30T14:59:34.165Z,44.13
2022-08-30T15:02:04.672Z,45.13
2022-08-30T15:04:34.440Z,45.26
2022-08-30T15:07:05.607Z,45.02
2022-08-30T15:09:37.217Z,45.29
2022-08-30T15:12:10.263Z,43.51
2022-08-30T15:14:40.796Z,44.41
2022-08-30T15:17:11.711Z,44.75
2022-08-30T15:19:43.678Z,44.48
2022-08-30T15:22:13.519Z,44.20
2022-08-30T15:24:49.070Z,45.11
2022-08-30T15:27:21.939Z,44.01
2022-08-30T15:29:51.452Z,45.10
2022-08-30T15:32:21.875Z,45.41
2022-08-30T15:34:55.976Z,45.49
2022-08-30T15:37:26.665Z,45.15
2022-08-30T15:39:59.073Z,45.86
2022-08-30T15:42:28.835Z,46.32
2022-08-30T15:44:58.827Z,45.66
2022-08-30T15:47:28.115Z,45.96
2022-08-30T15:49:58.432Z,45.44
2022-08-30T15:52:29.686Z,45.06
2022-08-30T15:55:00.305Z,44.14
2022-08-30T15:57:29.629Z,44.75
2022-08-30T15:59:58.840Z,45.54
2022-08-30T16:02:28.212Z,46.35
2022-08-30T16:04:57.472Z,47.00
2022-08-30T16:07:26.617Z,46.61
2022-08-30T16:09:56.042Z,46.59
2022-08-30T16:12:26.593Z,47.20
2022-08-30T16:14:57.933Z,47.25
2022-08-30T16:17:27.106Z,47.30
2022-08-30T16:19:58.779Z,47.16
2022-08-30T16:22:28.171Z,46.48
2022-08-30T16:24:57.242Z,46.28
2022-08-30T16:27:28.128Z,46.30
2022-08-30T16:29:57.278Z,46.99
2022-08-30T16:32:27.198Z,47.10
2022-08-30T16:34:56.937Z,47.63
2022-08-30T16:37:26.557Z,47.39
2022-08-30T16:39:57.873Z,47.09
2022-08-30T16:42:28.960Z,47.25
2022-08-30T16:45:02.084Z,46.51
2022-08-30T16:47:35.538Z,47.13
2022-08-30T16:50:05.759Z,47.35
2022-08-30T16:52:39.475Z,48.38
2022-08-30T16:55:13.188Z,47.30
2022-08-30T16:57:45.741Z,47.20
2022-08-30T17:00:17.964Z,47.27
2022-08-30T17:02:55.091Z,47.43
2022-08-30T17:05:25.603Z,46.50
2022-08-30T17:07:55.917Z,47.63
2022-08-30T17:10:31.554Z,47.96
2022-08-30T17:13:05.428Z,47.94
2022-08-30T17:15:34.868Z,47.92
2022-08-30T17:18:04.804Z,48.54
2022-08-30T17:20:34.771Z,48.90
2022-08-30T17:23:04.475Z,49.44
2022-08-30T17:25:34.148Z,49.42
2022-08-30T17:28:05.789Z,49.41
2022-08-30T17:30:34.927Z,49.67
2022-08-30T17:33:04.890Z,49.81
2022-08-30T17:35:36.571Z,49.70
2022-08-30T17:38:05.344Z,49.99
2022-08-30T17:40:34.808Z,50.11
2022-08-30T17:43:05.286Z,50.43
2022-08-30T17:45:35.086Z,50.58
2022-08-30T17:48:32.950Z,50.92
2022-08-30T17:51:02.075Z,51.35
2022-08-30T17:53:33.911Z,52.29
2022-08-30T17:56:04.227Z,52.59
2022-08-30T17:58:34.875Z,53.08
2022-08-30T18:01:11.618Z,53.68
2022-08-30T18:03:42.084Z,54.46
2022-08-30T18:06:14.976Z,55.19
2022-08-30T18:08:45.937Z,55.92
2022-08-30T18:11:14.911Z,56.01
2022-08-30T18:13:45.877Z,56.95
2022-08-30T18:16:21.527Z,57.51
2022-08-30T18:18:57.307Z,57.68
2022-08-30T18:21:28.523Z,58.96
2022-08-30T18:23:58.815Z,59.50
2022-08-30T18:26:28.730Z,60.01
2022-08-30T18:29:00.953Z,60.30
2022-08-30T18:31:32.709Z,60.22
2022-08-30T18:34:04.174Z,60.87
2022-08-30T18:36:35.168Z,61.13
2022-08-30T18:39:04.232Z,61.50
2022-08-30T18:41:33.260Z,62.46
2022-08-30T18:44:26.009Z,62.94
2022-08-30T18:46:56.155Z,63.35
2022-08-30T18:49:29.247Z,63.89
2022-08-30T18:52:02.832Z,64.00
2022-08-30T18:54:32.105Z,64.12
2022-08-30T18:57:00.996Z,64.36
2022-08-30T18:59:36.712Z,64.38
2022-08-30T19:02:10.516Z,65.79
2022-08-30T19:04:42.856Z,66.48
2022-08-30T19:07:15.937Z,66.83
2022-08-30T19:09:48.178Z,67.00
2022-08-30T19:12:17.222Z,68.28
2022-08-30T19:14:48.802Z,68.20
2022-08-30T19:17:18.645Z,68.32
2022-08-30T19:19:52.278Z,68.24
2022-08-30T19:22:24.026Z,68.23
2022-08-30T19:24:56.965Z,68.89
2022-08-30T19:27:37.652Z,69.62
2022-08-30T19:30:12.985Z,70.63
2022-08-30T19:32:44.382Z,71.28
2022-08-30T19:35:17.798Z,72.00
2022-08-30T19:37:51.120Z,72.33
2022-08-30T19:40:21.765Z,71.60
2022-08-30T19:42:53.403Z,73.68
2022-08-30T19:45:26.785Z,72.37
2022-08-30T19:47:57.869Z,73.00
2022-08-30T19:50:27.579Z,72.59
2022-08-30T19:52:56.813Z,73.50
2022-08-30T19:55:28.487Z,73.29
2022-08-30T19:57:59.705Z,73.31
2022-08-30T20:00:31.135Z,73.40
2022-08-30T20:03:04.435Z,74.18
2022-08-30T20:05:37.499Z,75.72
2022-08-30T20:08:06.754Z,74.72
2022-08-30T20:10:37.129Z,75.08
2022-08-30T20:13:07.045Z,75.73
2022-08-30T20:15:39.588Z,75.45
2022-08-30T20:21:02.476Z,75.87
2022-08-30T20:23:35.527Z,76.83
2022-08-30T20:26:04.821Z,77.87
2022-08-30T20:28:33.606Z,76.48
2022-08-30T20:31:08.433Z,77.69
2022-08-30T20:33:39.040Z,77.15
2022-08-30T20:36:11.321Z,77.58
2022-08-30T20:38:41.459Z,77.32
2022-08-30T20:41:11.714Z,76.90
2022-08-30T20:43:41.531Z,77.05
2022-08-30T20:46:17.890Z,76.47
2022-08-30T20:48:47.881Z,77.06
2022-08-30T20:51:21.168Z,76.54
2022-08-30T20:53:50.926Z,76.46
2022-08-30T20:56:22.648Z,77.02
2022-08-30T20:58:52.241Z,77.21
2022-08-30T21:01:23.502Z,76.91
2022-08-30T21:03:52.620Z,76.57
2022-08-30T21:06:22.098Z,77.18
2022-08-30T21:08:50.984Z,77.03
2022-08-30T21:11:21.237Z,76.73
2022-08-30T21:13:50.302Z,78.55
2022-08-30T21:16:22.192Z,77.65
2022-08-30T21:18:52.976Z,77.15
2022-08-30T21:21:25.723Z,76.07
2022-08-30T21:23:59.433Z,75.90
2022-08-30T21:26:31.759Z,75.96
2022-08-30T21:29:03.777Z,75.88
2022-08-30T21:31:33.356Z,75.46
2022-08-30T21:34:03.785Z,75.69
2022-08-30T21:36:46.896Z,75.47
2022-08-30T21:39:21.080Z,75.18
2022-08-30T21:41:54.824Z,74.79
2022-08-30T21:44:25.910Z,74.35
2022-08-30T21:46:56.148Z,74.01
2022-08-30T21:49:27.320Z,74.35
2022-08-30T21:52:00.208Z,74.00
2022-08-30T21:54:31.557Z,73.38
2022-08-30T21:57:04.988Z,73.07
2022-08-30T21:59:34.501Z,72.72
2022-08-30T22:02:03.577Z,72.84
2022-08-30T22:04:34.236Z,72.74
2022-08-30T22:07:03.431Z,72.74
2022-08-30T22:09:32.261Z,72.17
2022-08-30T22:12:01.866Z,72.34
2022-08-30T22:14:33.283Z,72.05
2022-08-30T22:17:02.674Z,71.88
2022-08-30T22:19:33.808Z,72.22
2022-08-30T22:22:06.977Z,71.98
2022-08-30T22:24:36.230Z,71.31
2022-08-30T22:27:06.303Z,71.60
2022-08-30T22:29:35.952Z,71.62
2022-08-30T22:32:05.459Z,71.79
2022-08-30T22:34:34.594Z,71.75
2022-08-30T22:37:03.606Z,71.83
2022-08-30T22:39:33.877Z,71.65
2022-08-30T22:42:05.400Z,71.62
2022-08-30T22:44:34.657Z,72.11
2022-08-30T22:47:03.838Z,71.65
2022-08-30T22:49:33.106Z,71.90
2022-08-30T22:52:02.079Z,71.68
2022-08-30T22:54:37.168Z,71.96
2022-08-30T22:57:06.940Z,71.92
2022-08-30T22:59:36.986Z,72.02
2022-08-30T23:02:06.518Z,72.05
2022-08-30T23:04:38.327Z,72.46
2022-08-30T23:07:07.340Z,72.19
2022-08-30T23:09:38.164Z,72.23
2022-08-30T23:12:08.431Z,72.20
2022-08-30T23:14:37.524Z,72.47
2022-08-30T23:17:07.351Z,72.12
2022-08-30T23:19:36.248Z,72.41
2022-08-30T23:22:05.166Z,72.41
2022-08-30T23:24:51.281Z,72.57
2022-08-30T23:27:39.231Z,72.87
2022-08-30T23:30:27.645Z,72.50
2022-08-30T23:33:15.916Z,72.63
2022-08-30T23:36:02.776Z,72.67
2022-08-30T23:38:50.248Z,72.74
2022-08-30T23:41:37.306Z,72.92
2022-08-30T23:44:26.232Z,73.04
2022-08-30T23:47:13.163Z,72.89
2022-08-30T23:49:59.487Z,73.20
2022-08-30T23:52:46.651Z,73.44
2022-08-30T23:55:32.890Z,74.27
2022-08-30T23:58:19.914Z,73.97
